富士山静岡空港METAR/TAF(約33km東):

RJNS 230700Z 24011KT 9999 FEW000 SCT060 BKN160 24/23 Q1006

TAF RJNS 230507Z 2306/2412 26010KT 9999 FEW010 SCT030 TEMPO 2306/2309 4000 SHRA BR FEW005 BKN008

ソアリング用気象予報:
BLIPMAP 中部地方
中部日本航空連盟および大野グライダークラブの支援により運営されているソアリング用気象予報BLIPMAPの中部地方版です。

風向風力(Windy.com):
スマホでの閲覧には、アプリ版Windy(Android/iOS)が適切です。

EGC Icon